Time;durP1;ratioP1;P1;durP2;ratioP2;P2;SDS_P1;SDS_P2;PMS_P1;PMS_P2;Temp;Humidity;BMP_temperature;BMP_pressure;BME280_temperature;BME280_humidity;BME280_pressure;Samples;Min_cycle;Max_cycle;Signal;HPM_P1;HPM_P2
2022/04/01 00:01:08;;;;;;;2.25;0.90;;;;;;;-1.67;44.49;100433.44;5062645;28;20029;-60
2022/04/01 00:03:33;;;;;;;5.75;1.50;;;;;;;-1.75;44.78;100420.41;5061567;28;20384;-60
2022/04/01 00:05:59;;;;;;;3.78;1.10;;;;;;;-1.67;44.87;100427.47;5062681;28;20029;-59
2022/04/01 00:08:24;;;;;;;3.55;1.00;;;;;;;-1.67;44.95;100427.47;5062787;28;20033;-59
2022/04/01 00:10:50;;;;;;;1.58;0.90;;;;;;;-1.67;45.06;100437.66;5062804;28;20029;-59
2022/04/01 00:13:15;;;;;;;1.67;1.15;;;;;;;-1.69;45.10;100431.66;5062383;28;20025;-59
2022/04/01 00:15:41;;;;;;;1.73;1.05;;;;;;;-1.71;44.89;100431.56;5060980;28;20021;-59
2022/04/01 00:18:06;;;;;;;2.22;0.80;;;;;;;-1.70;45.03;100437.53;5062714;28;20036;-59
2022/04/01 00:20:31;;;;;;;4.22;1.00;;;;;;;-1.76;44.84;100433.91;5062519;28;20048;-59
2022/04/01 00:22:57;;;;;;;1.52;0.88;;;;;;;-1.80;44.86;100428.63;5062441;28;20456;-59
2022/04/01 00:25:23;;;;;;;5.20;1.48;;;;;;;-1.82;44.95;100436.19;5062528;28;20053;-59
2022/04/01 00:27:50;;;;;;;2.38;1.08;;;;;;;-1.87;45.35;100428.38;5062498;28;20051;-59
2022/04/01 00:30:15;;;;;;;1.25;1.00;;;;;;;-1.89;45.48;100431.66;5062413;28;20025;-59
2022/04/01 00:32:40;;;;;;;2.80;1.38;;;;;;;-1.89;45.31;100431.66;5064263;28;20035;-59
2022/04/01 00:35:06;;;;;;;5.97;1.10;;;;;;;-1.90;45.50;100435.03;5066338;28;20033;-61
2022/04/01 00:37:33;;;;;;;3.60;1.23;;;;;;;-1.90;45.49;100435.88;5066418;28;20024;-60
2022/04/01 00:39:58;;;;;;;2.80;1.05;;;;;;;-1.92;45.62;100426.44;5066202;28;20025;-61
2022/04/01 00:42:25;;;;;;;3.10;1.08;;;;;;;-1.93;45.53;100438.28;5064672;28;20031;-60
2022/04/01 00:44:51;;;;;;;2.20;1.10;;;;;;;-1.94;45.73;100443.31;5066125;28;20128;-60
2022/04/01 00:47:16;;;;;;;7.10;1.00;;;;;;;-2.01;45.95;100437.09;5064473;28;20056;-59
2022/04/01 00:49:43;;;;;;;4.55;1.50;;;;;;;-1.98;45.64;100441.47;5065647;28;20028;-60
2022/04/01 00:52:11;;;;;;;3.47;1.42;;;;;;;-2.08;45.74;100435.97;5065847;28;20025;-59
2022/04/01 00:54:37;;;;;;;2.72;1.23;;;;;;;-2.11;45.59;100430.75;5065700;28;20021;-60
2022/04/01 00:57:04;;;;;;;5.70;1.08;;;;;;;-2.11;46.00;100428.22;5065446;28;20348;-60
2022/04/01 00:59:30;;;;;;;1.95;1.48;;;;;;;-2.10;46.25;100439.22;5065579;28;20033;-60
2022/04/01 01:01:55;;;;;;;3.78;1.63;;;;;;;-2.12;46.39;100439.16;5065266;28;20025;-60
2022/04/01 01:04:21;;;;;;;2.25;1.00;;;;;;;-2.14;46.11;100435.72;5065416;28;20021;-60
2022/04/01 01:06:50;;;;;;;1.05;0.85;;;;;;;-2.14;46.24;100439.09;5065407;28;20080;-60
2022/04/01 01:09:16;;;;;;;3.50;0.95;;;;;;;-2.12;46.48;100444.25;5065339;28;20347;-60
2022/04/01 01:11:43;;;;;;;3.35;1.15;;;;;;;-2.10;46.53;100447.75;5065223;28;20054;-60
2022/04/01 01:14:10;;;;;;;3.53;1.00;;;;;;;-2.09;46.35;100449.47;5065025;28;20082;-60
2022/04/01 01:16:46;;;;;;;2.03;0.90;;;;;;;-2.09;46.72;100438.44;5064968;28;20106;-60
2022/04/01 01:19:15;;;;;;;4.38;1.50;;;;;;;-2.07;46.72;100441.91;5063997;28;20025;-60
2022/04/01 01:21:41;;;;;;;0.98;0.88;;;;;;;-2.07;46.78;100447.00;5065098;28;20044;-59
2022/04/01 01:24:13;;;;;;;2.75;1.30;;;;;;;-2.06;47.15;100444.53;5064997;28;20036;-60
2022/04/01 01:26:39;;;;;;;3.10;1.23;;;;;;;-2.10;47.33;100441.78;5063574;28;20507;-59
2022/04/01 01:29:08;;;;;;;3.13;1.17;;;;;;;-2.10;47.42;100442.66;5065372;28;20025;-62
2022/04/01 01:31:36;;;;;;;1.35;1.08;;;;;;;-2.15;47.74;100433.94;5065154;28;20020;-61
2022/04/01 01:34:02;;;;;;;1.00;0.80;;;;;;;-2.10;47.55;100444.31;5065168;28;20514;-60
2022/04/01 01:36:30;;;;;;;4.45;1.33;;;;;;;-2.11;47.62;100451.09;5064912;28;20025;-59
2022/04/01 01:38:55;;;;;;;3.25;0.80;;;;;;;-2.12;47.52;100449.34;5064787;28;20061;-59
2022/04/01 01:41:21;;;;;;;2.05;1.10;;;;;;;-2.12;47.46;100454.44;5064827;28;20025;-59
2022/04/01 01:43:47;;;;;;;3.17;1.63;;;;;;;-2.14;47.51;100456.91;5064504;28;20055;-59
2022/04/01 01:46:14;;;;;;;2.30;1.00;;;;;;;-2.17;47.59;100451.69;5064408;28;20044;-59
2022/04/01 01:48:40;;;;;;;4.93;1.23;;;;;;;-2.19;47.74;100449.88;5064726;28;20033;-59
2022/04/01 01:56:34;;;;;;;2.10;1.35;;;;;;;-2.26;47.52;100454.72;5064476;28;20146;-59
2022/04/01 01:59:00;;;;;;;3.72;1.10;;;;;;;-2.28;47.58;100452.88;5064650;28;20036;-60
2022/04/01 02:01:26;;;;;;;3.63;1.40;;;;;;;-2.33;47.77;100445.03;5064279;28;20071;-60
2022/04/01 02:03:51;;;;;;;1.33;1.05;;;;;;;-2.32;47.87;100446.81;5064320;28;20036;-60
2022/04/01 02:06:21;;;;;;;3.53;1.20;;;;;;;-2.34;47.77;100444.97;5064518;28;20060;-60
2022/04/01 02:08:47;;;;;;;2.30;1.20;;;;;;;-2.36;47.90;100444.91;5064262;28;20040;-60
2022/04/01 02:11:13;;;;;;;2.17;1.15;;;;;;;-2.39;47.86;100439.69;5062992;28;20047;-60
2022/04/01 02:13:39;;;;;;;1.92;1.10;;;;;;;-2.37;47.73;100449.13;5064150;28;20017;-60
2022/04/01 02:16:04;;;;;;;4.38;1.20;;;;;;;-2.36;48.00;100444.91;5063946;28;20056;-60
2022/04/01 02:18:29;;;;;;;1.88;0.90;;;;;;;-2.35;48.10;100448.31;5063970;28;20044;-60
2022/04/01 02:20:55;;;;;;;5.03;1.10;;;;;;;-2.39;48.13;100444.78;5064025;28;20032;-60
2022/04/01 02:23:20;;;;;;;2.33;1.00;;;;;;;-2.43;48.16;100441.22;5064028;28;20024;-60
2022/04/01 02:25:45;;;;;;;2.83;1.23;;;;;;;-2.42;48.45;100453.13;5063824;28;20527;-60
2022/04/01 02:28:12;;;;;;;3.40;1.20;;;;;;;-2.42;48.17;100449.72;5063744;28;20031;-61
2022/04/01 02:30:38;;;;;;;3.25;1.00;;;;;;;-2.41;48.10;100447.25;5063597;28;20021;-59
2022/04/01 02:33:03;;;;;;;1.42;0.90;;;;;;;-2.37;48.78;100450.81;5063885;28;20084;-60
2022/04/01 02:35:29;;;;;;;2.05;0.90;;;;;;;-2.40;48.59;100453.22;5063777;28;20060;-60
2022/04/01 02:37:55;;;;;;;1.40;0.93;;;;;;;-2.43;48.85;100441.22;5063791;28;20096;-60
2022/04/01 02:40:21;;;;;;;4.50;1.17;;;;;;;-2.37;48.73;100445.72;5063716;28;20025;-60
2022/04/01 02:42:47;;;;;;;2.13;0.98;;;;;;;-2.35;48.65;100446.66;5063387;28;20080;-60
2022/04/01 02:45:13;;;;;;;3.22;1.20;;;;;;;-2.34;48.84;100452.59;5063339;28;20373;-60
2022/04/01 02:47:39;;;;;;;4.47;1.25;;;;;;;-2.33;48.91;100447.59;5063485;28;20029;-60
2022/04/01 02:50:05;;;;;;;1.63;1.10;;;;;;;-2.37;48.68;100448.25;5063988;28;20062;-60
2022/04/01 02:52:31;;;;;;;1.80;1.50;;;;;;;-2.34;48.55;100458.56;5063797;28;20029;-60
2022/04/01 02:54:56;;;;;;;2.53;1.35;;;;;;;-2.34;48.79;100456.03;5063128;28;20384;-60
2022/04/01 02:57:22;;;;;;;3.03;1.13;;;;;;;-2.35;48.93;100467.00;5063676;28;20043;-60
2022/04/01 02:59:48;;;;;;;1.52;1.10;;;;;;;-2.44;48.91;100459.81;5063527;28;20020;-60
2022/04/01 03:02:14;;;;;;;7.38;1.33;;;;;;;-2.42;48.87;100464.97;5063316;28;20028;-60
2022/04/01 03:04:40;;;;;;;3.70;1.38;;;;;;;-2.47;49.20;100467.31;5063715;28;20036;-60
2022/04/01 03:07:06;;;;;;;2.55;1.13;;;;;;;-2.54;49.46;100461.06;5063520;28;20025;-60
2022/04/01 03:09:31;;;;;;;2.08;1.15;;;;;;;-2.56;49.68;100464.34;5063570;28;20021;-61
2022/04/01 03:11:57;;;;;;;1.52;1.10;;;;;;;-2.62;49.75;100460.72;5063256;28;20034;-61
2022/04/01 03:14:23;;;;;;;2.15;1.55;;;;;;;-2.65;49.79;100469.88;5063321;28;20182;-61
2022/04/01 03:16:48;;;;;;;3.38;1.52;;;;;;;-2.71;49.71;100464.50;5063319;28;20110;-60
2022/04/01 03:19:13;;;;;;;3.92;1.55;;;;;;;-2.71;50.06;100473.00;5063306;28;20020;-60
2022/04/01 03:21:39;;;;;;;4.25;1.30;;;;;;;-2.73;49.69;100469.50;5063005;28;20043;-60
2022/04/01 03:24:05;;;;;;;5.05;1.60;;;;;;;-2.75;49.80;100471.13;5063338;28;20056;-60
2022/04/01 03:26:31;;;;;;;2.70;1.10;;;;;;;-2.76;49.84;100467.69;5063395;28;20543;-60
2022/04/01 03:28:56;;;;;;;3.78;1.48;;;;;;;-2.75;50.03;100473.66;5062916;28;20047;-60
2022/04/01 03:31:22;;;;;;;3.53;1.15;;;;;;;-2.75;49.97;100471.97;5062831;28;20041;-61
2022/04/01 03:33:47;;;;;;;2.15;1.30;;;;;;;-2.74;50.04;100483.91;5063190;28;20032;-60
2022/04/01 03:36:13;;;;;;;4.22;2.25;;;;;;;-2.80;50.33;100463.28;5063115;28;20024;-64
2022/04/01 03:38:40;;;;;;;3.38;1.00;;;;;;;-2.75;50.36;100482.13;5063045;28;20024;-60
2022/04/01 03:41:06;;;;;;;2.42;1.00;;;;;;;-2.79;50.33;100479.38;5063042;28;20024;-60
2022/04/01 03:43:34;;;;;;;1.90;1.05;;;;;;;-2.80;50.70;100486.16;5063129;28;20103;-60
2022/04/01 03:46:09;;;;;;;3.72;1.17;;;;;;;-2.86;50.40;100479.09;5062776;28;20408;-60
2022/04/01 03:48:42;;;;;;;2.75;1.10;;;;;;;-2.87;50.49;100486.66;5062896;28;20021;-60
2022/04/01 03:51:08;;;;;;;4.03;2.55;;;;;;;-2.90;50.47;100476.34;5063016;28;20052;-61
2022/04/01 03:53:36;;;;;;;3.47;1.38;;;;;;;-2.88;50.77;100484.91;5062778;28;20028;-60
2022/04/01 03:56:06;;;;;;;1.85;1.13;;;;;;;-2.90;50.63;100482.31;5063192;28;20021;-60
2022/04/01 03:58:34;;;;;;;3.00;1.35;;;;;;;-2.90;50.66;100489.03;5062918;28;20078;-60
2022/04/01 04:01:02;;;;;;;3.78;1.20;;;;;;;-2.94;50.60;100484.63;5062763;28;20153;-60
2022/04/01 04:03:29;;;;;;;2.25;1.00;;;;;;;-2.92;50.88;100483.00;5062740;28;20024;-60
2022/04/01 04:05:56;;;;;;;4.55;1.40;;;;;;;-2.93;50.64;100494.88;5062910;28;20084;-60
2022/04/01 04:08:24;;;;;;;2.45;1.13;;;;;;;-3.01;51.14;100483.44;5066173;28;20025;-59
2022/04/01 04:10:52;;;;;;;3.45;1.50;;;;;;;-3.02;51.27;100492.72;5066880;28;20477;-59
2022/04/01 04:13:19;;;;;;;4.72;1.40;;;;;;;-3.00;51.23;100502.97;5066733;28;20025;-60
2022/04/01 04:15:47;;;;;;;4.68;1.40;;;;;;;-3.04;51.09;100501.09;5066466;28;20021;-62
2022/04/01 04:18:15;;;;;;;1.50;1.00;;;;;;;-3.07;51.49;100499.28;5066861;28;20028;-61
2022/04/01 04:21:04;;;;;;;2.40;1.10;;;;;;;-3.08;51.49;100507.69;5066679;28;20029;-60
2022/04/01 04:23:38;;;;;;;2.50;1.30;;;;;;;-3.11;51.33;100507.53;5065472;28;20021;-60
2022/04/01 04:26:11;;;;;;;3.00;1.40;;;;;;;-3.13;51.18;100504.91;5066576;28;20128;-61
2022/04/01 04:28:40;;;;;;;7.57;1.58;;;;;;;-3.17;51.12;100497.06;5066464;28;20249;-59
2022/04/01 04:31:08;;;;;;;4.40;1.48;;;;;;;-3.18;51.34;100506.34;5066138;28;20040;-62
2022/04/01 04:33:41;;;;;;;4.03;1.30;;;;;;;-3.16;51.66;100517.47;5066325;28;20507;-63
2022/04/01 04:36:10;;;;;;;4.28;1.95;;;;;;;-3.17;51.97;100513.19;5066452;28;20380;-62
2022/04/01 04:38:41;;;;;;;1.80;1.23;;;;;;;-3.17;52.19;100510.66;5066035;28;20105;-62
2022/04/01 04:41:10;;;;;;;4.00;1.30;;;;;;;-3.18;52.45;100515.66;5066398;28;20025;-61
2022/04/01 04:43:41;;;;;;;3.22;1.90;;;;;;;-3.21;52.47;100521.44;5066290;28;20084;-62
2022/04/01 04:46:08;;;;;;;5.97;1.77;;;;;;;-3.23;52.70;100520.50;5066170;28;20047;-62
2022/04/01 04:48:35;;;;;;;4.22;1.90;;;;;;;-3.20;52.85;100517.25;5065885;28;20074;-62
2022/04/01 04:51:06;;;;;;;2.35;1.42;;;;;;;-3.08;53.18;100517.84;5066116;28;20402;-60
2022/04/01 04:53:35;;;;;;;2.42;1.42;;;;;;;-2.81;53.10;100531.81;5066002;28;20576;-61
2022/04/01 04:56:03;;;;;;;7.60;1.80;;;;;;;-2.50;52.92;100534.16;5066029;28;20052;-61
2022/04/01 04:58:39;;;;;;;2.97;1.58;;;;;;;-2.18;52.81;100525.38;5065628;28;20027;-62
2022/04/01 05:01:30;;;;;;;3.88;1.65;;;;;;;-1.90;52.77;100521.56;5065591;28;20142;-62
2022/04/01 05:04:29;;;;;;;4.13;1.77;;;;;;;-1.53;52.66;100528.25;5065814;28;20029;-63
2022/04/01 05:07:33;;;;;;;2.92;1.10;;;;;;;-1.14;52.51;100526.44;5065397;28;20035;-65
2022/04/01 05:10:16;;;;;;;3.33;1.40;;;;;;;-0.84;52.23;100531.03;5064322;28;20021;-66
2022/04/01 05:13:03;;;;;;;5.47;1.33;;;;;;;-0.59;52.25;100538.81;5065687;28;20047;-61
2022/04/01 05:15:31;;;;;;;5.43;1.30;;;;;;;-0.36;51.92;100541.38;5065383;28;20024;-61
2022/04/01 05:18:10;;;;;;;7.45;1.50;;;;;;;-0.17;51.78;100541.28;5064694;28;20051;-61
2022/04/01 05:20:48;;;;;;;4.00;1.40;;;;;;;0.02;51.76;100541.94;5065061;28;20617;-63
2022/04/01 05:23:18;;;;;;;2.92;1.30;;;;;;;0.24;51.59;100538.50;5065536;28;20028;-60
2022/04/01 05:25:46;;;;;;;2.38;1.33;;;;;;;0.55;51.75;100535.28;5065191;28;20078;-61
2022/04/01 05:28:22;;;;;;;5.80;1.70;;;;;;;0.88;51.03;100541.50;5064037;28;20017;-61
2022/04/01 05:30:56;;;;;;;4.88;1.85;;;;;;;1.13;50.47;100540.63;5064927;28;20033;-62
2022/04/01 05:33:26;;;;;;;3.13;1.25;;;;;;;1.38;50.67;100549.09;5065117;28;20021;-61
2022/04/01 05:35:53;;;;;;;5.80;1.63;;;;;;;1.59;49.92;100545.47;5063482;28;20056;-61
2022/04/01 05:38:22;;;;;;;4.53;1.40;;;;;;;1.86;49.62;100542.00;5064868;28;20484;-61
2022/04/01 05:40:50;;;;;;;8.52;1.58;;;;;;;2.17;49.02;100539.44;5064975;28;20036;-61
2022/04/01 05:43:16;;;;;;;5.80;2.05;;;;;;;2.39;48.77;100546.03;5064989;28;20025;-61
2022/04/01 05:45:43;;;;;;;6.07;1.40;;;;;;;2.59;47.96;100545.69;5064731;28;20040;-61
2022/04/01 05:48:11;;;;;;;4.25;1.45;;;;;;;2.77;47.42;100549.56;5065005;28;20024;-61
2022/04/01 05:50:37;;;;;;;7.85;1.70;;;;;;;2.89;46.86;100543.91;5064690;28;20021;-61
2022/04/01 05:53:04;;;;;;;6.88;1.77;;;;;;;2.94;46.58;100543.19;5064875;28;20025;-61
2022/04/01 05:55:31;;;;;;;11.15;2.00;;;;;;;3.07;47.01;100546.03;5064928;28;20017;-61
2022/04/01 05:57:56;;;;;;;7.63;1.92;;;;;;;3.52;46.88;100546.25;5063705;28;20017;-62
2022/04/01 06:00:22;;;;;;;10.38;2.20;;;;;;;4.05;46.03;100552.53;5065274;28;20508;-62
2022/04/01 06:03:39;;;;;;;10.05;1.80;;;;;;;4.49;44.51;100548.25;5063478;28;20025;-62
2022/04/01 06:06:20;;;;;;;6.72;1.75;;;;;;;5.12;44.15;100560.47;5052347;28;20041;-63
2022/04/01 06:09:01;;;;;;;7.68;2.08;;;;;;;5.65;43.91;100557.03;5064864;28;20492;-64
2022/04/01 06:11:38;;;;;;;3.50;1.50;;;;;;;6.02;43.21;100555.78;5065188;28;20063;-63
2022/04/01 06:14:33;;;;;;;4.38;1.90;;;;;;;6.44;42.04;100564.03;5064891;28;20029;-63
2022/04/01 06:17:17;;;;;;;6.35;1.50;;;;;;;6.66;41.51;100565.13;5064912;28;20027;-63
2022/04/01 06:19:45;;;;;;;10.82;2.38;;;;;;;6.51;40.35;100559.81;5064827;28;20074;-63
2022/04/01 06:22:17;;;;;;;5.10;2.05;;;;;;;6.35;39.78;100563.94;5064508;28;20496;-63
2022/04/01 06:24:53;;;;;;;6.70;1.60;;;;;;;6.02;39.73;100566.94;5064626;28;20029;-62
2022/04/01 06:27:38;;;;;;;6.15;1.65;;;;;;;5.72;39.80;100572.56;5064639;28;20091;-62
2022/04/01 06:30:06;;;;;;;2.03;1.33;;;;;;;5.61;40.11;100572.41;5063617;28;20023;-65
2022/04/01 06:32:50;;;;;;;9.02;1.70;;;;;;;5.53;40.72;100573.16;5064185;28;20040;-62
2022/04/01 06:35:26;;;;;;;7.50;1.50;;;;;;;6.07;40.54;100570.47;5064536;28;20025;-62
2022/04/01 06:38:05;;;;;;;8.07;2.03;;;;;;;6.46;39.63;100572.66;5064272;28;20047;-62
2022/04/01 06:40:56;;;;;;;6.65;1.70;;;;;;;6.80;39.30;100561.84;5062997;28;20025;-63
2022/04/01 06:43:22;;;;;;;5.00;1.58;;;;;;;7.12;37.25;100575.88;5063969;28;20051;-64
2022/04/01 06:45:47;;;;;;;3.45;1.70;;;;;;;7.05;37.80;100581.00;5063719;28;20052;-61
2022/04/01 06:48:13;;;;;;;5.90;1.42;;;;;;;6.71;37.43;100574.66;5064201;28;20036;-63
2022/04/01 06:50:38;;;;;;;4.25;1.63;;;;;;;6.73;37.65;100589.28;5064107;28;20051;-64
2022/04/01 06:53:05;;;;;;;5.05;1.45;;;;;;;6.57;37.28;100586.53;5063904;28;20073;-64
2022/04/01 06:55:30;;;;;;;5.13;1.42;;;;;;;6.58;38.06;100595.16;5064077;28;20075;-65
2022/04/01 06:57:56;;;;;;;7.25;1.52;;;;;;;7.00;38.22;100586.94;5064073;28;20024;-63
2022/04/01 07:00:21;;;;;;;6.18;1.30;;;;;;;7.85;37.65;100593.63;5062592;28;20051;-64
2022/04/01 07:02:49;;;;;;;2.55;1.05;;;;;;;7.87;35.55;100594.50;5063674;28;20064;-62
2022/04/01 07:05:15;;;;;;;5.03;1.42;;;;;;;7.51;35.59;100599.41;5063702;28;20029;-63
2022/04/01 07:07:42;;;;;;;5.13;1.42;;;;;;;7.46;35.93;100598.53;5063709;28;20530;-64
2022/04/01 07:10:10;;;;;;;2.15;1.38;;;;;;;7.39;35.90;100590.75;5063591;28;20032;-66
2022/04/01 07:12:36;;;;;;;5.68;2.30;;;;;;;7.51;36.11;100586.50;5063432;28;20424;-63
2022/04/01 07:15:02;;;;;;;5.53;1.13;;;;;;;7.78;35.37;100597.91;5063679;28;20379;-63
2022/04/01 07:17:27;;;;;;;4.05;1.95;;;;;;;7.65;35.04;100604.72;5063358;28;20028;-63
2022/04/01 07:19:53;;;;;;;5.82;1.25;;;;;;;7.47;34.50;100597.69;5063816;28;20029;-63
2022/04/01 07:22:18;;;;;;;3.67;1.35;;;;;;;7.22;35.46;100585.41;5063616;28;20029;-65
2022/04/01 07:24:43;;;;;;;2.65;1.30;;;;;;;7.04;35.66;100592.19;5063442;28;20392;-63
2022/04/01 07:27:11;;;;;;;6.68;1.40;;;;;;;6.87;35.62;100599.75;5063703;28;20102;-64
2022/04/01 07:29:36;;;;;;;6.57;1.45;;;;;;;6.99;36.09;100609.34;5061959;28;20047;-64
2022/04/01 07:34:48;;;;;;;3.40;1.52;;;;;;;7.27;35.75;100606.13;5063473;28;20043;-64
2022/04/01 07:37:14;;;;;;;1.55;1.00;;;;;;;7.51;35.78;100607.16;5063449;28;20468;-64
2022/04/01 07:39:39;;;;;;;2.53;1.20;;;;;;;7.85;35.71;100610.00;5063240;28;20025;-63
2022/04/01 07:42:06;;;;;;;3.83;1.30;;;;;;;8.12;34.74;100617.88;5063092;28;20396;-63
2022/04/01 07:44:31;;;;;;;3.83;1.20;;;;;;;8.16;35.21;100617.91;5063087;28;20021;-63
2022/04/01 07:46:57;;;;;;;5.10;1.70;;;;;;;8.42;34.34;100629.22;5062716;28;20095;-66
2022/04/01 07:49:23;;;;;;;4.35;1.10;;;;;;;8.25;33.79;100634.34;5063084;28;20025;-62
2022/04/01 07:51:48;;;;;;;3.28;0.85;;;;;;;7.78;34.54;100629.75;5062958;28;20021;-63
2022/04/01 07:54:19;;;;;;;4.20;1.15;;;;;;;7.56;35.03;100631.31;5062886;28;20024;-62
2022/04/01 07:56:44;;;;;;;3.05;1.42;;;;;;;7.13;34.84;100630.13;5062245;28;20367;-63
2022/04/01 07:59:14;;;;;;;3.60;1.33;;;;;;;6.82;35.98;100627.25;5062645;28;20167;-63
2022/04/01 08:01:40;;;;;;;2.60;1.52;;;;;;;7.08;36.80;100629.19;5062527;28;20453;-63
2022/04/01 08:04:05;;;;;;;3.83;1.42;;;;;;;7.54;35.98;100625.31;5063156;28;20131;-63
2022/04/01 08:06:31;;;;;;;2.70;0.93;;;;;;;7.28;35.35;100629.41;5063106;28;20056;-62
2022/04/01 08:08:58;;;;;;;2.90;1.10;;;;;;;7.07;35.77;100630.94;5062345;28;20024;-63
2022/04/01 08:11:25;;;;;;;4.50;1.10;;;;;;;6.96;35.68;100621.34;5062992;28;20049;-61
2022/04/01 08:13:50;;;;;;;3.78;1.17;;;;;;;6.74;35.88;100634.03;5062362;28;20033;-61
2022/04/01 08:16:16;;;;;;;2.92;1.10;;;;;;;6.62;36.37;100625.28;5061951;28;20021;-61
2022/04/01 08:18:41;;;;;;;6.03;1.35;;;;;;;6.81;36.57;100630.66;5061102;28;20099;-61
2022/04/01 08:21:06;;;;;;;3.85;1.63;;;;;;;7.02;35.38;100631.72;5062073;28;20062;-61
2022/04/01 08:23:34;;;;;;;5.55;1.92;;;;;;;6.80;35.25;100627.22;5061933;28;20024;-61
2022/04/01 08:26:02;;;;;;;2.13;1.20;;;;;;;6.76;35.82;100629.72;5062054;28;20392;-60
2022/04/01 08:28:27;;;;;;;1.83;1.00;;;;;;;6.78;34.96;100640.94;5062086;28;20084;-61
2022/04/01 08:30:53;;;;;;;7.35;2.08;;;;;;;6.71;35.48;100634.84;5062190;28;20052;-61
2022/04/01 08:33:20;;;;;;;1.77;1.00;;;;;;;7.09;34.82;100635.25;5061943;28;20033;-60
2022/04/01 08:35:46;;;;;;;3.80;1.00;;;;;;;7.29;34.51;100636.28;5062080;28;20021;-61
2022/04/01 08:38:11;;;;;;;1.83;0.90;;;;;;;7.65;34.10;100646.91;5061991;28;20021;-60
2022/04/01 08:40:37;;;;;;;1.52;0.90;;;;;;;7.98;33.23;100638.50;5062063;28;20085;-61
2022/04/01 08:43:02;;;;;;;3.05;1.00;;;;;;;7.98;32.78;100644.56;5061891;28;20128;-61
2022/04/01 08:45:32;;;;;;;6.28;1.52;;;;;;;8.09;32.45;100647.19;5061764;28;20426;-61
2022/04/01 08:47:58;;;;;;;3.15;1.15;;;;;;;8.06;31.94;100647.19;5061845;28;20032;-61
2022/04/01 08:50:23;;;;;;;2.00;1.10;;;;;;;8.24;32.11;100648.13;5061830;28;20048;-61
2022/04/01 08:52:48;;;;;;;3.13;0.98;;;;;;;8.37;31.30;100647.31;5060979;28;20121;-61
2022/04/01 08:55:14;;;;;;;1.88;1.10;;;;;;;8.22;30.97;100644.66;5065515;28;20063;-61
2022/04/01 08:57:42;;;;;;;3.13;1.05;;;;;;;8.39;31.19;100650.78;5064026;28;20329;-62
2022/04/01 09:00:14;;;;;;;2.25;1.00;;;;;;;8.63;29.98;100649.19;5063958;28;20013;-63
2022/04/01 09:02:44;;;;;;;5.97;1.40;;;;;;;8.63;30.67;100645.72;5064968;28;20029;-60
2022/04/01 09:05:10;;;;;;;1.60;1.00;;;;;;;9.27;30.07;100651.06;5065104;28;20033;-61
2022/04/01 09:07:36;;;;;;;1.98;1.00;;;;;;;9.64;29.90;100652.78;5065243;28;20400;-61
2022/04/01 09:10:08;;;;;;;2.40;1.00;;;;;;;9.99;28.97;100653.59;5063760;28;20344;-61
2022/04/01 09:12:34;;;;;;;3.90;1.00;;;;;;;10.36;28.93;100645.75;5065179;28;20039;-61
2022/04/01 09:15:01;;;;;;;4.63;0.90;;;;;;;10.86;27.57;100644.69;5065161;28;20044;-61
2022/04/01 09:17:44;;;;;;;1.42;0.88;;;;;;;10.74;26.67;100646.47;5064745;28;20222;-61
2022/04/01 09:20:10;;;;;;;2.35;0.93;;;;;;;10.61;25.77;100648.25;5065287;28;20024;-61
2022/04/01 09:22:38;;;;;;;1.25;0.70;;;;;;;10.57;25.50;100646.56;5064713;28;20025;-61
2022/04/01 09:25:24;;;;;;;2.38;1.10;;;;;;;10.52;26.51;100654.38;5064716;28;20115;-61
2022/04/01 09:27:52;;;;;;;2.53;0.70;;;;;;;10.77;25.40;100642.97;5064399;28;20033;-61
2022/04/01 09:30:19;;;;;;;3.13;0.90;;;;;;;10.71;25.58;100650.81;5064742;28;20021;-61
2022/04/01 09:33:10;;;;;;;2.15;0.70;;;;;;;10.59;25.72;100647.38;5063196;28;20372;-61
2022/04/01 09:35:36;;;;;;;0.77;0.70;;;;;;;10.74;24.87;100646.47;5064773;28;20032;-61
2022/04/01 09:38:04;;;;;;;1.88;0.55;;;;;;;10.54;24.07;100650.00;5064741;28;20112;-61
2022/04/01 09:40:30;;;;;;;2.50;1.05;;;;;;;10.45;24.35;100651.78;5064790;28;20032;-61
2022/04/01 09:42:59;;;;;;;2.50;1.17;;;;;;;10.49;24.39;100646.59;5064684;28;20025;-62
2022/04/01 09:45:35;;;;;;;1.83;0.80;;;;;;;10.86;24.82;100642.91;5064356;28;20593;-62
2022/04/01 09:48:07;;;;;;;1.55;0.60;;;;;;;11.46;23.33;100647.72;5064410;28;20092;-62
2022/04/01 09:50:38;;;;;;;2.15;1.00;;;;;;;11.38;23.42;100647.78;5064628;28;20028;-62
2022/04/01 09:53:11;;;;;;;1.17;0.80;;;;;;;11.73;24.09;100646.63;5064492;28;20112;-62
2022/04/01 09:55:41;;;;;;;3.58;0.88;;;;;;;12.34;21.76;100645.16;5064347;28;20079;-61
2022/04/01 09:58:08;;;;;;;2.63;1.10;;;;;;;12.26;21.78;100643.50;5064368;28;20419;-61
2022/04/01 10:00:36;;;;;;;2.05;0.80;;;;;;;12.18;21.03;100628.84;5064518;28;20041;-62
2022/04/01 10:03:03;;;;;;;6.35;0.80;;;;;;;12.00;20.80;100646.34;5064118;28;20033;-62
2022/04/01 10:05:29;;;;;;;2.03;0.80;;;;;;;11.97;21.02;100638.56;5062659;28;20025;-62
2022/04/01 10:07:57;;;;;;;2.30;0.60;;;;;;;11.47;21.56;100639.91;5063991;28;20055;-61
2022/04/01 10:10:24;;;;;;;1.88;0.85;;;;;;;11.36;22.26;100641.72;5064265;28;20081;-64
2022/04/01 10:12:53;;;;;;;1.20;0.70;;;;;;;11.68;22.20;100637.97;5064059;28;20048;-62
2022/04/01 10:15:20;;;;;;;2.78;0.60;;;;;;;12.44;21.92;100646.78;5063915;28;20021;-62
2022/04/01 10:17:46;;;;;;;1.65;0.68;;;;;;;12.53;20.57;100637.97;5063871;28;20025;-63
2022/04/01 10:20:13;;;;;;;2.22;0.70;;;;;;;12.18;20.39;100639.25;5063717;28;20032;-62
2022/04/01 10:22:40;;;;;;;5.30;0.80;;;;;;;11.98;21.37;100622.09;5063770;28;20024;-62
2022/04/01 10:25:16;;;;;;;1.55;0.80;;;;;;;12.18;20.67;100641.84;5063486;28;20017;-61
2022/04/01 10:27:47;;;;;;;3.75;0.90;;;;;;;12.37;19.76;100645.97;5063583;28;20021;-60
2022/04/01 10:30:15;;;;;;;2.17;0.70;;;;;;;12.03;20.76;100641.97;5063747;28;20135;-61
2022/04/01 10:32:43;;;;;;;2.15;0.68;;;;;;;12.44;21.10;100636.34;5063473;28;20404;-60
2022/04/01 10:35:26;;;;;;;2.45;0.80;;;;;;;13.06;20.87;100644.19;5063275;28;20024;-61
2022/04/01 10:38:15;;;;;;;1.52;0.70;;;;;;;13.35;19.67;100630.72;5063620;28;20208;-61
2022/04/01 10:40:44;;;;;;;3.15;0.68;;;;;;;13.84;19.77;100636.00;5063682;28;20051;-61
2022/04/01 10:43:10;;;;;;;1.45;0.73;;;;;;;14.57;19.23;100631.06;5063187;28;20029;-61
2022/04/01 10:45:38;;;;;;;0.65;0.52;;;;;;;14.65;18.13;100630.06;5063010;28;20223;-61
2022/04/01 10:51:37;;;;;;;1.30;0.80;;;;;;;13.73;18.93;100630.09;5063216;28;20040;-60
2022/04/01 10:54:14;;;;;;;2.53;0.82;;;;;;;13.41;19.02;100627.13;5058763;28;20072;-60
2022/04/01 10:56:54;;;;;;;3.35;0.70;;;;;;;13.68;19.19;100627.56;5063293;28;20048;-60
2022/04/01 10:59:24;;;;;;;2.50;0.68;;;;;;;14.09;18.70;100621.63;5063217;28;20028;-61
2022/04/01 11:01:52;;;;;;;1.33;0.65;;;;;;;13.84;19.05;100627.28;5063182;28;20017;-61
2022/04/01 11:04:17;;;;;;;1.15;0.68;;;;;;;13.76;18.70;100617.00;5063261;28;20514;-62
2022/04/01 11:07:28;;;;;;;1.30;0.57;;;;;;;13.79;18.73;100614.31;5063002;28;20524;-61
2022/04/01 11:10:04;;;;;;;2.08;0.60;;;;;;;13.51;17.72;100630.50;5063052;28;20021;-62
2022/04/01 11:12:36;;;;;;;2.17;0.75;;;;;;;12.97;17.76;100627.81;5063131;28;20028;-62
2022/04/01 11:17:41;;;;;;;1.45;0.63;;;;;;;12.93;18.05;100627.88;5062282;28;20080;-62
2022/04/01 11:20:07;;;;;;;4.43;1.00;;;;;;;12.58;18.59;100620.53;5062856;28;20028;-62
2022/04/01 11:22:53;;;;;;;2.08;0.80;;;;;;;11.50;19.72;100613.88;5062779;28;20029;-63
2022/04/01 11:25:33;;;;;;;2.55;1.30;;;;;;;11.01;20.08;100618.59;5058462;28;20040;-62
2022/04/01 11:27:59;;;;;;;1.90;0.90;;;;;;;9.75;20.79;100626.84;5062512;28;20079;-63
2022/04/01 11:30:26;;;;;;;2.28;0.80;;;;;;;8.55;22.27;100625.00;5063578;28;20423;-63
2022/04/01 11:33:12;;;;;;;2.70;0.90;;;;;;;7.84;23.38;100636.72;5063363;28;20047;-62
2022/04/01 11:35:41;;;;;;;2.65;1.17;;;;;;;7.38;24.08;100632.06;5063335;28;20025;-64
2022/04/01 11:38:15;;;;;;;4.95;1.17;;;;;;;6.99;24.57;100631.69;5063485;28;20021;-63
2022/04/01 11:40:42;;;;;;;3.42;0.90;;;;;;;6.57;25.12;100642.41;5063637;28;20029;-63
2022/04/01 11:43:15;;;;;;;2.90;0.90;;;;;;;6.26;25.42;100634.31;5063254;28;20029;-63
2022/04/01 11:46:06;;;;;;;3.15;1.25;;;;;;;6.04;25.79;100647.75;5062923;28;20496;-62
2022/04/01 11:48:34;;;;;;;3.05;1.05;;;;;;;5.81;26.21;100639.69;5060476;28;20040;-62
2022/04/01 11:51:22;;;;;;;1.60;0.90;;;;;;;5.58;27.03;100630.75;5061824;28;20081;-62
2022/04/01 11:53:51;;;;;;;4.10;2.45;;;;;;;5.57;27.44;100635.88;5063311;28;20024;-62